sensor_id;sensor_type;location;lat;lon;timestamp;temperature;humidity
43651;DHT22;29247;50.944;5.382;2023-02-03T00:01:47;11.20;83.60
43651;DHT22;29247;50.944;5.382;2023-02-03T00:04:13;11.20;83.60
43651;DHT22;29247;50.944;5.382;2023-02-03T00:06:40;11.20;83.50
43651;DHT22;29247;50.944;5.382;2023-02-03T00:09:06;11.20;83.50
43651;DHT22;29247;50.944;5.382;2023-02-03T00:11:32;11.20;83.50
43651;DHT22;29247;50.944;5.382;2023-02-03T00:13:59;11.20;83.50
43651;DHT22;29247;50.944;5.382;2023-02-03T00:16:28;11.20;83.50
43651;DHT22;29247;50.944;5.382;2023-02-03T00:18:54;11.20;83.50
43651;DHT22;29247;50.944;5.382;2023-02-03T00:21:20;11.20;83.60
43651;DHT22;29247;50.944;5.382;2023-02-03T00:23:46;11.20;83.80
43651;DHT22;29247;50.944;5.382;2023-02-03T00:26:14;11.20;83.60
43651;DHT22;29247;50.944;5.382;2023-02-03T00:28:40;11.20;83.60
43651;DHT22;29247;50.944;5.382;2023-02-03T00:31:17;11.20;83.60
43651;DHT22;29247;50.944;5.382;2023-02-03T00:33:46;11.20;83.70
43651;DHT22;29247;50.944;5.382;2023-02-03T00:36:15;11.20;83.70
43651;DHT22;29247;50.944;5.382;2023-02-03T00:38:41;11.20;83.70
43651;DHT22;29247;50.944;5.382;2023-02-03T00:41:08;11.20;83.70
43651;DHT22;29247;50.944;5.382;2023-02-03T00:43:34;11.10;83.70
43651;DHT22;29247;50.944;5.382;2023-02-03T00:46:00;11.20;83.70
43651;DHT22;29247;50.944;5.382;2023-02-03T00:48:25;11.10;83.70
43651;DHT22;29247;50.944;5.382;2023-02-03T00:50:51;11.20;83.80
43651;DHT22;29247;50.944;5.382;2023-02-03T00:53:17;11.10;83.80
43651;DHT22;29247;50.944;5.382;2023-02-03T00:55:43;11.10;83.80
43651;DHT22;29247;50.944;5.382;2023-02-03T00:58:10;11.10;83.80
43651;DHT22;29247;50.944;5.382;2023-02-03T01:00:38;11.10;83.80
43651;DHT22;29247;50.944;5.382;2023-02-03T01:03:05;11.10;83.80
43651;DHT22;29247;50.944;5.382;2023-02-03T01:05:30;11.10;83.80
43651;DHT22;29247;50.944;5.382;2023-02-03T01:07:56;11.10;83.90
43651;DHT22;29247;50.944;5.382;2023-02-03T01:10:22;11.10;83.90
43651;DHT22;29247;50.944;5.382;2023-02-03T01:12:47;11.10;83.90
43651;DHT22;29247;50.944;5.382;2023-02-03T01:15:13;11.10;83.90
43651;DHT22;29247;50.944;5.382;2023-02-03T01:17:39;11.10;84.00
43651;DHT22;29247;50.944;5.382;2023-02-03T01:20:05;11.10;84.70
43651;DHT22;29247;50.944;5.382;2023-02-03T01:22:31;11.10;84.00
43651;DHT22;29247;50.944;5.382;2023-02-03T01:24:59;11.10;84.00
43651;DHT22;29247;50.944;5.382;2023-02-03T01:27:27;11.10;84.00
43651;DHT22;29247;50.944;5.382;2023-02-03T01:29:52;11.10;84.00
43651;DHT22;29247;50.944;5.382;2023-02-03T01:32:20;11.10;84.00
43651;DHT22;29247;50.944;5.382;2023-02-03T01:34:46;11.10;84.00
43651;DHT22;29247;50.944;5.382;2023-02-03T01:37:14;11.10;84.00
43651;DHT22;29247;50.944;5.382;2023-02-03T01:39:42;11.10;84.00
43651;DHT22;29247;50.944;5.382;2023-02-03T01:42:15;11.10;84.00
43651;DHT22;29247;50.944;5.382;2023-02-03T01:44:48;11.10;84.10
43651;DHT22;29247;50.944;5.382;2023-02-03T01:47:32;11.10;84.20
43651;DHT22;29247;50.944;5.382;2023-02-03T01:50:14;11.10;84.10
43651;DHT22;29247;50.944;5.382;2023-02-03T01:52:47;11.10;84.10
43651;DHT22;29247;50.944;5.382;2023-02-03T01:55:19;11.10;84.20
43651;DHT22;29247;50.944;5.382;2023-02-03T01:57:57;11.10;84.20
43651;DHT22;29247;50.944;5.382;2023-02-03T02:00:24;11.10;84.30
43651;DHT22;29247;50.944;5.382;2023-02-03T02:02:50;11.10;84.30
43651;DHT22;29247;50.944;5.382;2023-02-03T02:08:08;11.10;84.50
43651;DHT22;29247;50.944;5.382;2023-02-03T02:10:34;11.10;84.30
43651;DHT22;29247;50.944;5.382;2023-02-03T02:13:02;11.10;84.30
43651;DHT22;29247;50.944;5.382;2023-02-03T02:26:52;11.10;84.50
43651;DHT22;29247;50.944;5.382;2023-02-03T02:29:44;11.10;84.30
43651;DHT22;29247;50.944;5.382;2023-02-03T02:32:42;11.10;84.30
43651;DHT22;29247;50.944;5.382;2023-02-03T02:35:30;11.10;84.40
43651;DHT22;29247;50.944;5.382;2023-02-03T02:40:49;11.10;84.40
43651;DHT22;29247;50.944;5.382;2023-02-03T02:43:27;11.10;84.40
43651;DHT22;29247;50.944;5.382;2023-02-03T02:46:13;11.10;84.40
43651;DHT22;29247;50.944;5.382;2023-02-03T02:51:28;11.10;84.50
43651;DHT22;29247;50.944;5.382;2023-02-03T02:53:58;11.10;84.40
43651;DHT22;29247;50.944;5.382;2023-02-03T02:56:26;11.10;84.40
43651;DHT22;29247;50.944;5.382;2023-02-03T02:58:55;11.10;84.30
43651;DHT22;29247;50.944;5.382;2023-02-03T03:01:24;11.10;84.30
43651;DHT22;29247;50.944;5.382;2023-02-03T03:03:52;11.10;84.20
43651;DHT22;29247;50.944;5.382;2023-02-03T03:06:52;11.10;85.10
43651;DHT22;29247;50.944;5.382;2023-02-03T03:09:14;11.10;84.20
43651;DHT22;29247;50.944;5.382;2023-02-03T03:11:49;11.10;84.20
43651;DHT22;29247;50.944;5.382;2023-02-03T03:14:19;11.10;84.20
43651;DHT22;29247;50.944;5.382;2023-02-03T03:16:56;11.10;84.20
43651;DHT22;29247;50.944;5.382;2023-02-03T03:19:27;11.10;84.10
43651;DHT22;29247;50.944;5.382;2023-02-03T03:21:56;11.10;84.50
43651;DHT22;29247;50.944;5.382;2023-02-03T03:24:27;11.20;84.10
43651;DHT22;29247;50.944;5.382;2023-02-03T03:29:47;11.10;84.00
43651;DHT22;29247;50.944;5.382;2023-02-03T03:32:16;11.10;84.00
43651;DHT22;29247;50.944;5.382;2023-02-03T03:34:42;11.10;84.00
43651;DHT22;29247;50.944;5.382;2023-02-03T03:37:18;11.10;84.10
43651;DHT22;29247;50.944;5.382;2023-02-03T03:39:45;11.10;84.10
43651;DHT22;29247;50.944;5.382;2023-02-03T03:45:16;11.20;84.10
43651;DHT22;29247;50.944;5.382;2023-02-03T03:48:08;11.10;83.90
43651;DHT22;29247;50.944;5.382;2023-02-03T03:50:52;11.10;83.90
43651;DHT22;29247;50.944;5.382;2023-02-03T03:53:19;11.10;83.80
43651;DHT22;29247;50.944;5.382;2023-02-03T03:55:50;11.10;83.90
43651;DHT22;29247;50.944;5.382;2023-02-03T03:58:21;11.10;83.90
43651;DHT22;29247;50.944;5.382;2023-02-03T04:00:49;11.10;83.70
43651;DHT22;29247;50.944;5.382;2023-02-03T04:03:22;11.20;83.70
43651;DHT22;29247;50.944;5.382;2023-02-03T04:05:49;11.10;83.70
43651;DHT22;29247;50.944;5.382;2023-02-03T04:08:15;11.10;83.70
43651;DHT22;29247;50.944;5.382;2023-02-03T04:10:41;11.10;83.70
43651;DHT22;29247;50.944;5.382;2023-02-03T04:13:09;11.10;83.60
43651;DHT22;29247;50.944;5.382;2023-02-03T04:15:38;11.10;83.60
43651;DHT22;29247;50.944;5.382;2023-02-03T04:18:04;11.10;83.60
43651;DHT22;29247;50.944;5.382;2023-02-03T04:20:32;11.10;83.50
43651;DHT22;29247;50.944;5.382;2023-02-03T04:22:59;11.10;83.50
43651;DHT22;29247;50.944;5.382;2023-02-03T04:25:24;11.10;83.40
43651;DHT22;29247;50.944;5.382;2023-02-03T04:27:53;11.10;83.40
43651;DHT22;29247;50.944;5.382;2023-02-03T04:30:19;11.10;83.40
43651;DHT22;29247;50.944;5.382;2023-02-03T04:32:45;11.20;83.40
43651;DHT22;29247;50.944;5.382;2023-02-03T04:35:12;11.10;83.30
43651;DHT22;29247;50.944;5.382;2023-02-03T04:37:37;11.10;83.30
43651;DHT22;29247;50.944;5.382;2023-02-03T04:40:04;11.10;83.20
43651;DHT22;29247;50.944;5.382;2023-02-03T04:42:29;11.10;83.20
43651;DHT22;29247;50.944;5.382;2023-02-03T04:44:55;11.10;83.30
43651;DHT22;29247;50.944;5.382;2023-02-03T04:47:21;11.10;83.90
43651;DHT22;29247;50.944;5.382;2023-02-03T04:49:47;11.10;83.10
43651;DHT22;29247;50.944;5.382;2023-02-03T04:52:16;11.10;83.00
43651;DHT22;29247;50.944;5.382;2023-02-03T04:54:42;11.10;83.00
43651;DHT22;29247;50.944;5.382;2023-02-03T04:57:07;11.10;83.00
43651;DHT22;29247;50.944;5.382;2023-02-03T04:59:33;11.10;83.00
43651;DHT22;29247;50.944;5.382;2023-02-03T05:02:03;11.10;83.00
43651;DHT22;29247;50.944;5.382;2023-02-03T05:04:29;11.10;82.90
43651;DHT22;29247;50.944;5.382;2023-02-03T05:06:58;11.20;83.00
43651;DHT22;29247;50.944;5.382;2023-02-03T05:09:25;11.10;82.90
43651;DHT22;29247;50.944;5.382;2023-02-03T05:11:52;11.10;82.90
43651;DHT22;29247;50.944;5.382;2023-02-03T05:14:18;11.10;82.90
43651;DHT22;29247;50.944;5.382;2023-02-03T05:16:44;11.10;82.90
43651;DHT22;29247;50.944;5.382;2023-02-03T05:19:09;11.10;82.80
43651;DHT22;29247;50.944;5.382;2023-02-03T05:21:35;11.10;83.10
43651;DHT22;29247;50.944;5.382;2023-02-03T05:24:03;11.10;82.90
43651;DHT22;29247;50.944;5.382;2023-02-03T05:26:35;11.10;82.80
43651;DHT22;29247;50.944;5.382;2023-02-03T05:29:03;11.10;82.80
43651;DHT22;29247;50.944;5.382;2023-02-03T05:31:29;11.10;82.80
43651;DHT22;29247;50.944;5.382;2023-02-03T05:33:57;11.10;82.80
43651;DHT22;29247;50.944;5.382;2023-02-03T05:36:28;11.10;82.80
43651;DHT22;29247;50.944;5.382;2023-02-03T05:38:58;11.10;82.80
43651;DHT22;29247;50.944;5.382;2023-02-03T05:41:27;11.10;82.80
43651;DHT22;29247;50.944;5.382;2023-02-03T05:44:11;11.10;82.80
43651;DHT22;29247;50.944;5.382;2023-02-03T05:46:36;11.10;82.80
43651;DHT22;29247;50.944;5.382;2023-02-03T05:49:02;11.10;82.80
43651;DHT22;29247;50.944;5.382;2023-02-03T05:51:28;11.10;82.80
43651;DHT22;29247;50.944;5.382;2023-02-03T05:53:53;11.10;82.80
43651;DHT22;29247;50.944;5.382;2023-02-03T05:56:19;11.10;82.80
43651;DHT22;29247;50.944;5.382;2023-02-03T05:58:49;11.10;82.80
43651;DHT22;29247;50.944;5.382;2023-02-03T06:01:21;11.10;82.80
43651;DHT22;29247;50.944;5.382;2023-02-03T06:03:47;11.10;82.80
43651;DHT22;29247;50.944;5.382;2023-02-03T06:06:13;11.10;82.80
43651;DHT22;29247;50.944;5.382;2023-02-03T06:08:43;11.10;82.80
43651;DHT22;29247;50.944;5.382;2023-02-03T06:11:12;11.00;82.70
43651;DHT22;29247;50.944;5.382;2023-02-03T06:13:38;11.10;82.70
43651;DHT22;29247;50.944;5.382;2023-02-03T06:16:04;11.10;82.70
43651;DHT22;29247;50.944;5.382;2023-02-03T06:18:30;11.10;82.70
43651;DHT22;29247;50.944;5.382;2023-02-03T06:20:56;11.10;82.60
43651;DHT22;29247;50.944;5.382;2023-02-03T06:23:22;11.10;82.60
43651;DHT22;29247;50.944;5.382;2023-02-03T06:25:53;11.00;82.50
43651;DHT22;29247;50.944;5.382;2023-02-03T06:28:23;11.00;82.50
43651;DHT22;29247;50.944;5.382;2023-02-03T06:30:50;11.00;82.40
43651;DHT22;29247;50.944;5.382;2023-02-03T06:33:18;11.10;82.40
43651;DHT22;29247;50.944;5.382;2023-02-03T06:35:46;11.00;82.30
43651;DHT22;29247;50.944;5.382;2023-02-03T06:38:14;11.00;82.30
43651;DHT22;29247;50.944;5.382;2023-02-03T06:40:40;11.00;82.20
43651;DHT22;29247;50.944;5.382;2023-02-03T06:43:06;11.10;82.20
43651;DHT22;29247;50.944;5.382;2023-02-03T06:45:32;11.10;82.20
43651;DHT22;29247;50.944;5.382;2023-02-03T06:48:01;11.00;82.10
43651;DHT22;29247;50.944;5.382;2023-02-03T06:50:27;11.00;82.10
43651;DHT22;29247;50.944;5.382;2023-02-03T06:52:52;11.10;82.20
43651;DHT22;29247;50.944;5.382;2023-02-03T06:55:18;11.10;82.10
43651;DHT22;29247;50.944;5.382;2023-02-03T06:57:48;11.10;82.10
43651;DHT22;29247;50.944;5.382;2023-02-03T07:00:16;11.00;82.00
43651;DHT22;29247;50.944;5.382;2023-02-03T07:02:43;11.10;82.10
43651;DHT22;29247;50.944;5.382;2023-02-03T07:05:09;11.00;82.00
43651;DHT22;29247;50.944;5.382;2023-02-03T07:07:39;11.10;82.00
43651;DHT22;29247;50.944;5.382;2023-02-03T07:10:08;11.00;82.00
43651;DHT22;29247;50.944;5.382;2023-02-03T07:12:34;11.00;82.00
43651;DHT22;29247;50.944;5.382;2023-02-03T07:15:01;11.00;81.90
43651;DHT22;29247;50.944;5.382;2023-02-03T07:17:27;11.00;81.90
43651;DHT22;29247;50.944;5.382;2023-02-03T07:19:55;11.10;82.00
43651;DHT22;29247;50.944;5.382;2023-02-03T07:22:21;11.00;81.90
43651;DHT22;29247;50.944;5.382;2023-02-03T07:24:49;11.10;81.90
43651;DHT22;29247;50.944;5.382;2023-02-03T07:27:17;11.10;81.90
43651;DHT22;29247;50.944;5.382;2023-02-03T07:29:44;11.10;81.90
43651;DHT22;29247;50.944;5.382;2023-02-03T07:32:10;11.10;82.00
43651;DHT22;29247;50.944;5.382;2023-02-03T07:34:36;11.10;81.90
43651;DHT22;29247;50.944;5.382;2023-02-03T07:37:02;11.10;81.90
43651;DHT22;29247;50.944;5.382;2023-02-03T07:39:31;11.10;81.90
43651;DHT22;29247;50.944;5.382;2023-02-03T07:41:57;11.10;82.60
43651;DHT22;29247;50.944;5.382;2023-02-03T07:44:23;11.10;81.90
43651;DHT22;29247;50.944;5.382;2023-02-03T07:46:51;11.10;81.90
43651;DHT22;29247;50.944;5.382;2023-02-03T07:49:16;11.10;81.90
43651;DHT22;29247;50.944;5.382;2023-02-03T07:51:42;11.10;81.90
43651;DHT22;29247;50.944;5.382;2023-02-03T07:54:10;11.10;81.90
43651;DHT22;29247;50.944;5.382;2023-02-03T07:56:35;11.20;81.90
43651;DHT22;29247;50.944;5.382;2023-02-03T07:59:03;11.20;81.90
43651;DHT22;29247;50.944;5.382;2023-02-03T08:01:32;11.10;81.90
43651;DHT22;29247;50.944;5.382;2023-02-03T08:04:01;11.20;81.90
43651;DHT22;29247;50.944;5.382;2023-02-03T08:06:32;11.10;81.90
43651;DHT22;29247;50.944;5.382;2023-02-03T08:08:58;11.10;81.90
43651;DHT22;29247;50.944;5.382;2023-02-03T08:11:25;11.20;81.90
43651;DHT22;29247;50.944;5.382;2023-02-03T08:13:50;11.20;82.00
43651;DHT22;29247;50.944;5.382;2023-02-03T08:16:16;11.20;82.00
43651;DHT22;29247;50.944;5.382;2023-02-03T08:18:47;11.20;81.90
43651;DHT22;29247;50.944;5.382;2023-02-03T08:21:15;11.20;81.90
43651;DHT22;29247;50.944;5.382;2023-02-03T08:23:41;11.20;82.60
43651;DHT22;29247;50.944;5.382;2023-02-03T08:26:07;11.20;81.80
43651;DHT22;29247;50.944;5.382;2023-02-03T08:28:36;11.20;81.80
43651;DHT22;29247;50.944;5.382;2023-02-03T08:31:11;11.20;81.80
43651;DHT22;29247;50.944;5.382;2023-02-03T08:33:36;11.20;81.90
43651;DHT22;29247;50.944;5.382;2023-02-03T08:36:05;11.20;82.60
43651;DHT22;29247;50.944;5.382;2023-02-03T08:38:33;11.20;81.80
43651;DHT22;29247;50.944;5.382;2023-02-03T08:41:08;11.20;81.80
43651;DHT22;29247;50.944;5.382;2023-02-03T08:43:36;11.30;81.90
43651;DHT22;29247;50.944;5.382;2023-02-03T08:46:04;11.20;81.90
43651;DHT22;29247;50.944;5.382;2023-02-03T08:48:33;11.30;81.90
43651;DHT22;29247;50.944;5.382;2023-02-03T08:50:58;11.30;81.80
43651;DHT22;29247;50.944;5.382;2023-02-03T08:53:27;11.30;81.70
43651;DHT22;29247;50.944;5.382;2023-02-03T08:55:53;11.30;81.70
43651;DHT22;29247;50.944;5.382;2023-02-03T08:58:22;11.30;81.60
43651;DHT22;29247;50.944;5.382;2023-02-03T09:00:47;11.30;81.60
43651;DHT22;29247;50.944;5.382;2023-02-03T09:03:17;11.40;81.70
43651;DHT22;29247;50.944;5.382;2023-02-03T09:05:43;11.30;81.60
43651;DHT22;29247;50.944;5.382;2023-02-03T09:08:11;11.30;81.70
43651;DHT22;29247;50.944;5.382;2023-02-03T09:10:37;11.30;81.70
43651;DHT22;29247;50.944;5.382;2023-02-03T09:13:03;11.40;81.80
43651;DHT22;29247;50.944;5.382;2023-02-03T09:15:29;11.40;81.90
43651;DHT22;29247;50.944;5.382;2023-02-03T09:17:55;11.40;81.80
43651;DHT22;29247;50.944;5.382;2023-02-03T09:20:24;11.40;81.80
43651;DHT22;29247;50.944;5.382;2023-02-03T09:22:50;11.40;81.80
43651;DHT22;29247;50.944;5.382;2023-02-03T09:25:22;11.50;81.90
43651;DHT22;29247;50.944;5.382;2023-02-03T09:27:48;11.50;82.00
43651;DHT22;29247;50.944;5.382;2023-02-03T09:30:14;11.50;82.10
43651;DHT22;29247;50.944;5.382;2023-02-03T09:32:45;11.50;82.10
43651;DHT22;29247;50.944;5.382;2023-02-03T09:35:14;11.50;82.10
43651;DHT22;29247;50.944;5.382;2023-02-03T09:37:42;11.50;82.20
43651;DHT22;29247;50.944;5.382;2023-02-03T09:40:23;11.50;82.40
43651;DHT22;29247;50.944;5.382;2023-02-03T09:46:07;11.60;82.80
43651;DHT22;29247;50.944;5.382;2023-02-03T09:48:42;11.60;82.90
43651;DHT22;29247;50.944;5.382;2023-02-03T09:51:33;11.50;83.00
43651;DHT22;29247;50.944;5.382;2023-02-03T09:54:21;11.50;83.10
43651;DHT22;29247;50.944;5.382;2023-02-03T09:56:51;11.60;83.30
43651;DHT22;29247;50.944;5.382;2023-02-03T09:59:23;11.60;83.40
43651;DHT22;29247;50.944;5.382;2023-02-03T10:04:52;11.60;83.60
43651;DHT22;29247;50.944;5.382;2023-02-03T10:07:37;11.60;83.70
43651;DHT22;29247;50.944;5.382;2023-02-03T10:10:15;11.60;83.70
43651;DHT22;29247;50.944;5.382;2023-02-03T10:16:03;11.70;83.90
43651;DHT22;29247;50.944;5.382;2023-02-03T10:18:38;11.70;83.90
43651;DHT22;29247;50.944;5.382;2023-02-03T10:21:34;11.60;83.80
43651;DHT22;29247;50.944;5.382;2023-02-03T10:23:59;11.70;83.90
43651;DHT22;29247;50.944;5.382;2023-02-03T10:26:27;11.70;83.90
43651;DHT22;29247;50.944;5.382;2023-02-03T10:29:01;11.70;84.00
43651;DHT22;29247;50.944;5.382;2023-02-03T10:31:33;11.60;84.00
43651;DHT22;29247;50.944;5.382;2023-02-03T10:34:13;11.60;84.00
43651;DHT22;29247;50.944;5.382;2023-02-03T10:36:57;11.60;84.00
43651;DHT22;29247;50.944;5.382;2023-02-03T10:42:07;11.70;84.10
43651;DHT22;29247;50.944;5.382;2023-02-03T10:44:44;11.70;84.10
43651;DHT22;29247;50.944;5.382;2023-02-03T10:47:30;11.70;84.10
43651;DHT22;29247;50.944;5.382;2023-02-03T10:50:06;11.70;84.10
43651;DHT22;29247;50.944;5.382;2023-02-03T10:52:35;11.70;83.90
43651;DHT22;29247;50.944;5.382;2023-02-03T10:55:07;11.70;83.80
43651;DHT22;29247;50.944;5.382;2023-02-03T10:57:37;11.70;83.70
43651;DHT22;29247;50.944;5.382;2023-02-03T11:00:18;11.70;83.70
43651;DHT22;29247;50.944;5.382;2023-02-03T11:02:58;11.70;83.70
43651;DHT22;29247;50.944;5.382;2023-02-03T11:05:24;11.70;83.80
43651;DHT22;29247;50.944;5.382;2023-02-03T11:07:51;11.70;83.80
43651;DHT22;29247;50.944;5.382;2023-02-03T11:10:36;11.70;84.00
43651;DHT22;29247;50.944;5.382;2023-02-03T11:18:31;11.80;84.30
43651;DHT22;29247;50.944;5.382;2023-02-03T11:21:06;11.80;84.40
43651;DHT22;29247;50.944;5.382;2023-02-03T11:23:33;11.90;84.60
43651;DHT22;29247;50.944;5.382;2023-02-03T11:26:03;11.90;84.50
43651;DHT22;29247;50.944;5.382;2023-02-03T11:28:33;11.90;84.50
43651;DHT22;29247;50.944;5.382;2023-02-03T11:31:03;11.90;84.50
43651;DHT22;29247;50.944;5.382;2023-02-03T11:33:31;12.00;84.60
43651;DHT22;29247;50.944;5.382;2023-02-03T11:36:01;12.00;84.50
43651;DHT22;29247;50.944;5.382;2023-02-03T11:38:36;12.00;84.30
43651;DHT22;29247;50.944;5.382;2023-02-03T11:41:17;12.00;84.20
43651;DHT22;29247;50.944;5.382;2023-02-03T11:43:47;12.10;84.10
43651;DHT22;29247;50.944;5.382;2023-02-03T11:46:13;12.10;83.90
43651;DHT22;29247;50.944;5.382;2023-02-03T11:51:24;12.10;83.70
43651;DHT22;29247;50.944;5.382;2023-02-03T12:19:18;12.10;83.90
43651;DHT22;29247;50.944;5.382;2023-02-03T12:21:50;12.10;84.00
43651;DHT22;29247;50.944;5.382;2023-02-03T12:24:50;12.10;84.00
43651;DHT22;29247;50.944;5.382;2023-02-03T12:27:40;12.10;84.10
43651;DHT22;29247;50.944;5.382;2023-02-03T12:30:15;12.10;83.90
43651;DHT22;29247;50.944;5.382;2023-02-03T12:32:48;12.10;84.00
43651;DHT22;29247;50.944;5.382;2023-02-03T12:35:39;12.10;83.90
43651;DHT22;29247;50.944;5.382;2023-02-03T12:38:33;12.10;83.90
43651;DHT22;29247;50.944;5.382;2023-02-03T12:41:06;12.10;83.80
43651;DHT22;29247;50.944;5.382;2023-02-03T12:43:45;12.10;83.70
43651;DHT22;29247;50.944;5.382;2023-02-03T12:46:25;12.20;83.80
43651;DHT22;29247;50.944;5.382;2023-02-03T12:51:42;12.20;83.80
43651;DHT22;29247;50.944;5.382;2023-02-03T12:54:36;12.20;83.80
43651;DHT22;29247;50.944;5.382;2023-02-03T12:57:39;12.20;83.80
43651;DHT22;29247;50.944;5.382;2023-02-03T13:00:53;12.20;83.70
43651;DHT22;29247;50.944;5.382;2023-02-03T13:08:30;12.20;83.70
43651;DHT22;29247;50.944;5.382;2023-02-03T13:13:41;12.20;83.70
43651;DHT22;29247;50.944;5.382;2023-02-03T13:16:09;12.10;83.70
43651;DHT22;29247;50.944;5.382;2023-02-03T13:18:44;12.20;83.80
43651;DHT22;29247;50.944;5.382;2023-02-03T13:21:14;12.10;83.70
43651;DHT22;29247;50.944;5.382;2023-02-03T13:23:43;12.10;83.70
43651;DHT22;29247;50.944;5.382;2023-02-03T13:44:48;12.10;84.20
43651;DHT22;29247;50.944;5.382;2023-02-03T13:47:23;12.10;84.10
43651;DHT22;29247;50.944;5.382;2023-02-03T13:50:00;12.10;84.20
43651;DHT22;29247;50.944;5.382;2023-02-03T13:54:59;12.10;84.20
43651;DHT22;29247;50.944;5.382;2023-02-03T13:57:31;12.10;84.30
43651;DHT22;29247;50.944;5.382;2023-02-03T13:59:59;12.10;84.30
43651;DHT22;29247;50.944;5.382;2023-02-03T14:04:53;12.10;84.30
43651;DHT22;29247;50.944;5.382;2023-02-03T14:07:38;12.10;84.30
43651;DHT22;29247;50.944;5.382;2023-02-03T14:10:24;12.10;84.40
43651;DHT22;29247;50.944;5.382;2023-02-03T14:17:53;12.10;84.50
43651;DHT22;29247;50.944;5.382;2023-02-03T14:25:24;12.10;84.50
43651;DHT22;29247;50.944;5.382;2023-02-03T14:28:03;12.10;84.50
43651;DHT22;29247;50.944;5.382;2023-02-03T14:30:29;12.10;84.50
43651;DHT22;29247;50.944;5.382;2023-02-03T14:33:02;12.10;84.50
43651;DHT22;29247;50.944;5.382;2023-02-03T14:35:33;12.10;84.50
43651;DHT22;29247;50.944;5.382;2023-02-03T14:38:02;12.10;84.60
43651;DHT22;29247;50.944;5.382;2023-02-03T14:40:46;12.10;84.50
43651;DHT22;29247;50.944;5.382;2023-02-03T14:49:03;12.10;84.70
43651;DHT22;29247;50.944;5.382;2023-02-03T14:57:53;12.10;84.50
43651;DHT22;29247;50.944;5.382;2023-02-03T15:05:50;12.10;84.50
43651;DHT22;29247;50.944;5.382;2023-02-03T15:11:32;12.20;84.50
43651;DHT22;29247;50.944;5.382;2023-02-03T15:14:17;12.20;84.50
43651;DHT22;29247;50.944;5.382;2023-02-03T15:16:44;12.20;84.40
43651;DHT22;29247;50.944;5.382;2023-02-03T15:19:31;12.20;84.20
43651;DHT22;29247;50.944;5.382;2023-02-03T15:21:58;12.20;84.10
43651;DHT22;29247;50.944;5.382;2023-02-03T15:24:25;12.20;84.00
43651;DHT22;29247;50.944;5.382;2023-02-03T15:26:53;12.20;84.00
43651;DHT22;29247;50.944;5.382;2023-02-03T15:29:22;12.20;83.90
43651;DHT22;29247;50.944;5.382;2023-02-03T15:31:53;12.20;83.80
43651;DHT22;29247;50.944;5.382;2023-02-03T15:34:45;12.20;83.70
43651;DHT22;29247;50.944;5.382;2023-02-03T15:37:36;12.20;83.70
43651;DHT22;29247;50.944;5.382;2023-02-03T15:42:57;12.20;83.60
43651;DHT22;29247;50.944;5.382;2023-02-03T15:45:34;12.20;83.50
43651;DHT22;29247;50.944;5.382;2023-02-03T15:50:57;12.20;83.90
43651;DHT22;29247;50.944;5.382;2023-02-03T15:53:44;12.20;83.50
43651;DHT22;29247;50.944;5.382;2023-02-03T15:58:47;12.20;83.60
43651;DHT22;29247;50.944;5.382;2023-02-03T16:01:14;12.20;83.50
43651;DHT22;29247;50.944;5.382;2023-02-03T16:03:51;12.20;83.50
43651;DHT22;29247;50.944;5.382;2023-02-03T16:06:18;12.20;83.60
43651;DHT22;29247;50.944;5.382;2023-02-03T16:08:47;12.20;83.50
43651;DHT22;29247;50.944;5.382;2023-02-03T16:11:25;12.20;83.50
43651;DHT22;29247;50.944;5.382;2023-02-03T16:13:56;12.20;83.60
43651;DHT22;29247;50.944;5.382;2023-02-03T16:19:16;12.20;83.50
43651;DHT22;29247;50.944;5.382;2023-02-03T16:24:34;12.20;83.40
43651;DHT22;29247;50.944;5.382;2023-02-03T16:29:46;12.20;83.50
43651;DHT22;29247;50.944;5.382;2023-02-03T16:32:30;12.20;83.40
43651;DHT22;29247;50.944;5.382;2023-02-03T16:35:15;12.20;83.40
43651;DHT22;29247;50.944;5.382;2023-02-03T16:38:25;12.20;83.40
43651;DHT22;29247;50.944;5.382;2023-02-03T16:41:15;12.20;83.70
43651;DHT22;29247;50.944;5.382;2023-02-03T16:44:07;12.20;83.50
43651;DHT22;29247;50.944;5.382;2023-02-03T16:46:53;12.20;83.60
43651;DHT22;29247;50.944;5.382;2023-02-03T16:49:37;12.20;83.60
43651;DHT22;29247;50.944;5.382;2023-02-03T16:52:21;12.10;83.60
43651;DHT22;29247;50.944;5.382;2023-02-03T16:54:47;12.10;83.70
43651;DHT22;29247;50.944;5.382;2023-02-03T16:57:12;12.10;83.80
43651;DHT22;29247;50.944;5.382;2023-02-03T16:59:42;12.10;83.80
43651;DHT22;29247;50.944;5.382;2023-02-03T17:02:11;12.10;83.80
43651;DHT22;29247;50.944;5.382;2023-02-03T17:04:37;12.10;83.80
43651;DHT22;29247;50.944;5.382;2023-02-03T17:07:08;12.10;83.90
43651;DHT22;29247;50.944;5.382;2023-02-03T17:09:34;12.10;84.00
43651;DHT22;29247;50.944;5.382;2023-02-03T17:12:01;12.10;84.00
43651;DHT22;29247;50.944;5.382;2023-02-03T17:14:31;12.10;83.90
43651;DHT22;29247;50.944;5.382;2023-02-03T17:16:59;12.10;83.90
43651;DHT22;29247;50.944;5.382;2023-02-03T17:19:26;12.10;84.00
43651;DHT22;29247;50.944;5.382;2023-02-03T17:21:51;12.10;84.00
43651;DHT22;29247;50.944;5.382;2023-02-03T17:24:17;12.10;84.00
43651;DHT22;29247;50.944;5.382;2023-02-03T17:26:44;12.10;84.00
43651;DHT22;29247;50.944;5.382;2023-02-03T17:29:09;12.10;84.00
43651;DHT22;29247;50.944;5.382;2023-02-03T17:31:39;12.10;84.10
43651;DHT22;29247;50.944;5.382;2023-02-03T17:34:07;12.10;84.20
43651;DHT22;29247;50.944;5.382;2023-02-03T17:36:32;12.00;84.20
43651;DHT22;29247;50.944;5.382;2023-02-03T17:38:59;12.00;84.20
43651;DHT22;29247;50.944;5.382;2023-02-03T17:41:27;12.10;84.30
43651;DHT22;29247;50.944;5.382;2023-02-03T17:43:52;12.00;84.20
43651;DHT22;29247;50.944;5.382;2023-02-03T17:46:21;12.10;84.30
43651;DHT22;29247;50.944;5.382;2023-02-03T17:48:52;12.10;84.20
43651;DHT22;29247;50.944;5.382;2023-02-03T17:51:23;12.10;84.30
43651;DHT22;29247;50.944;5.382;2023-02-03T17:53:55;12.10;84.20
43651;DHT22;29247;50.944;5.382;2023-02-03T17:56:23;12.10;84.30
43651;DHT22;29247;50.944;5.382;2023-02-03T17:59:00;12.00;84.30
43651;DHT22;29247;50.944;5.382;2023-02-03T18:01:27;12.00;84.30
43651;DHT22;29247;50.944;5.382;2023-02-03T18:03:58;12.00;84.30
43651;DHT22;29247;50.944;5.382;2023-02-03T18:06:26;12.00;84.30
43651;DHT22;29247;50.944;5.382;2023-02-03T18:08:55;12.00;84.40
43651;DHT22;29247;50.944;5.382;2023-02-03T18:11:26;12.00;84.40
43651;DHT22;29247;50.944;5.382;2023-02-03T18:13:55;12.00;84.40
43651;DHT22;29247;50.944;5.382;2023-02-03T18:16:26;12.00;84.50
43651;DHT22;29247;50.944;5.382;2023-02-03T18:18:54;12.00;84.50
43651;DHT22;29247;50.944;5.382;2023-02-03T18:21:21;12.00;84.60
43651;DHT22;29247;50.944;5.382;2023-02-03T18:23:48;12.00;84.60
43651;DHT22;29247;50.944;5.382;2023-02-03T18:26:16;12.00;84.60